Time;durP1;ratioP1;P1;durP2;ratioP2;P2;SDS_P1;SDS_P2;PMS_P1;PMS_P2;Temp;Humidity;BMP_temperature;BMP_pressure;BME280_temperature;BME280_humidity;BME280_pressure;Samples;Min_cycle;Max_cycle;Signal;HPM_P1;HPM_P2
2023/07/11 01:01:44;;;;;;;16.15;9.20;;;;;;;;;;6235461;22;20211;-92
2023/07/11 01:05:28;;;;;;;13.73;8.13;;;;;;;;;;6239045;23;20174;-91
2023/07/11 01:08:33;;;;;;;13.48;8.23;;;;;;;;;;6239753;22;20163;-92
2023/07/11 01:11:51;;;;;;;14.98;8.10;;;;;;;;;;6239846;23;20257;-92
2023/07/11 01:14:56;;;;;;;15.82;8.32;;;;;;;;;;6238088;23;20210;-92
2023/07/11 01:18:03;;;;;;;13.90;8.40;;;;;;;;;;6237215;23;20162;-91
2023/07/11 01:24:52;;;;;;;20.77;10.65;;;;;;;;;;6239664;23;20197;-92
2023/07/11 01:27:57;;;;;;;14.20;9.00;;;;;;;;;;6236848;23;20213;-91
2023/07/11 01:31:33;;;;;;;15.82;9.95;;;;;;;;;;6236744;23;20154;-93
2023/07/11 01:34:38;;;;;;;13.95;9.45;;;;;;;;;;6237457;23;20645;-91
2023/07/11 01:37:44;;;;;;;17.17;9.20;;;;;;;;;;6235161;23;20166;-92
2023/07/11 01:40:52;;;;;;;17.35;9.00;;;;;;;;;;6237271;23;20218;-92
2023/07/11 01:43:57;;;;;;;15.07;9.52;;;;;;;;;;6238508;23;20223;-90
2023/07/11 01:47:02;;;;;;;14.98;9.73;;;;;;;;;;6237938;23;20167;-92
2023/07/11 01:50:08;;;;;;;29.15;9.75;;;;;;;;;;6237091;23;20166;-91
2023/07/11 01:53:14;;;;;;;18.70;9.02;;;;;;;;;;6238200;23;20167;-92
2023/07/11 01:56:21;;;;;;;19.13;9.13;;;;;;;;;;6256434;23;20197;-91
2023/07/11 01:59:26;;;;;;;14.95;9.25;;;;;;;;;;6238323;23;20610;-90
2023/07/11 02:02:31;;;;;;;18.83;9.73;;;;;;;;;;6240788;23;20170;-90
2023/07/11 02:05:37;;;;;;;13.57;8.98;;;;;;;;;;6240283;22;20611;-90
2023/07/11 02:08:42;;;;;;;13.80;9.05;;;;;;;;;;6238303;23;20166;-91
2023/07/11 02:11:48;;;;;;;18.70;9.23;;;;;;;;;;6238312;23;20166;-91
2023/07/11 02:14:53;;;;;;;19.20;9.80;;;;;;;;;;6239350;23;20692;-91
2023/07/11 02:17:58;;;;;;;13.75;8.68;;;;;;;;;;6240227;22;20226;-91
2023/07/11 02:21:03;;;;;;;17.33;8.80;;;;;;;;;;6239996;22;20178;-91
2023/07/11 02:24:34;;;;;;;14.65;8.82;;;;;;;;;;6240495;23;20162;-91
2023/07/11 02:27:41;;;;;;;18.48;10.45;;;;;;;;;;6244811;23;20193;-92
2023/07/11 02:30:48;;;;;;;16.98;9.07;;;;;;;;;;6239915;23;20170;-91
2023/07/11 02:33:54;;;;;;;16.92;9.27;;;;;;;;;;6241425;22;20170;-91
2023/07/11 02:36:59;;;;;;;16.17;9.48;;;;;;;;;;6241887;22;20171;-92
2023/07/11 02:40:05;;;;;;;14.40;9.00;;;;;;;;;;6241150;22;20163;-91
2023/07/11 02:43:11;;;;;;;15.38;9.98;;;;;;;;;;6239869;23;20302;-92
2023/07/11 02:46:17;;;;;;;12.18;8.80;;;;;;;;;;6239379;22;20162;-90
2023/07/11 02:49:22;;;;;;;16.33;9.82;;;;;;;;;;6241548;22;20169;-92
2023/07/11 02:52:27;;;;;;;21.50;10.43;;;;;;;;;;6241408;22;20489;-92
2023/07/11 02:55:32;;;;;;;18.58;10.32;;;;;;;;;;6240720;23;20199;-92
2023/07/11 02:58:40;;;;;;;22.58;8.70;;;;;;;;;;6240526;22;20209;-91
2023/07/11 03:01:45;;;;;;;15.80;9.85;;;;;;;;;;6239438;22;20232;-91
2023/07/11 03:04:52;;;;;;;23.77;10.70;;;;;;;;;;6239205;22;20173;-91
2023/07/11 03:07:59;;;;;;;18.33;9.77;;;;;;;;;;6238993;22;20170;-92
2023/07/11 03:11:04;;;;;;;25.08;10.82;;;;;;;;;;6240166;23;20170;-92
2023/07/11 03:14:12;;;;;;;30.45;11.38;;;;;;;;;;6241947;23;20219;-92
2023/07/11 03:17:17;;;;;;;27.50;10.90;;;;;;;;;;6237961;23;20506;-92
2023/07/11 03:20:22;;;;;;;19.58;11.05;;;;;;;;;;6239080;22;20201;-92
2023/07/11 03:23:32;;;;;;;22.92;10.25;;;;;;;;;;6239349;22;20158;-92
2023/07/11 03:26:37;;;;;;;18.00;10.82;;;;;;;;;;6239078;23;20972;-92
2023/07/11 03:29:43;;;;;;;23.27;11.02;;;;;;;;;;6241681;23;20171;-91
2023/07/11 03:32:48;;;;;;;18.70;10.43;;;;;;;;;;6238076;22;20166;-91
2023/07/11 03:35:53;;;;;;;21.00;10.77;;;;;;;;;;6240434;22;20221;-91
2023/07/11 03:38:58;;;;;;;21.92;10.93;;;;;;;;;;6241144;22;20170;-91
2023/07/11 03:42:03;;;;;;;20.02;11.70;;;;;;;;;;6241457;23;20177;-92
2023/07/11 03:45:10;;;;;;;21.77;11.93;;;;;;;;;;6242064;23;20233;-91
2023/07/11 03:48:16;;;;;;;17.73;11.40;;;;;;;;;;6240018;23;20622;-92
2023/07/11 03:51:21;;;;;;;20.25;10.85;;;;;;;;;;6241336;22;20154;-91
2023/07/11 03:54:26;;;;;;;20.05;10.98;;;;;;;;;;6241392;22;20233;-92
2023/07/11 03:57:31;;;;;;;17.35;10.38;;;;;;;;;;6241668;23;20170;-92
2023/07/11 04:00:38;;;;;;;19.45;10.43;;;;;;;;;;6239571;23;20214;-90
2023/07/11 04:03:44;;;;;;;19.48;10.52;;;;;;;;;;6240844;23;20170;-92
2023/07/11 04:07:14;;;;;;;20.48;10.88;;;;;;;;;;6239877;22;20158;-90
2023/07/11 04:10:20;;;;;;;23.35;10.90;;;;;;;;;;6241648;23;20219;-92
2023/07/11 04:13:25;;;;;;;22.52;11.10;;;;;;;;;;6241933;23;20170;-91
2023/07/11 04:16:32;;;;;;;23.95;11.07;;;;;;;;;;6241314;23;20267;-91
2023/07/11 04:19:37;;;;;;;24.58;11.63;;;;;;;;;;6242328;23;20213;-91
2023/07/11 04:22:42;;;;;;;23.08;12.23;;;;;;;;;;6242792;22;20178;-90
2023/07/11 04:25:47;;;;;;;18.40;10.25;;;;;;;;;;6243308;23;20171;-91
2023/07/11 04:28:52;;;;;;;18.40;9.82;;;;;;;;;;6242344;23;20165;-90
2023/07/11 04:31:59;;;;;;;17.55;10.38;;;;;;;;;;6240175;23;20183;-91
2023/07/11 04:35:05;;;;;;;21.60;10.13;;;;;;;;;;6241610;22;20194;-91
2023/07/11 04:38:14;;;;;;;19.77;9.88;;;;;;;;;;6241693;22;20170;-92
2023/07/11 04:41:20;;;;;;;16.17;9.80;;;;;;;;;;6243385;22;20162;-91
2023/07/11 04:44:25;;;;;;;19.30;9.13;;;;;;;;;;6241621;23;20206;-92
2023/07/11 04:47:32;;;;;;;17.85;9.20;;;;;;;;;;6245864;23;20178;-92
2023/07/11 04:50:37;;;;;;;18.92;9.55;;;;;;;;;;6243651;22;20223;-92
2023/07/11 04:53:42;;;;;;;17.88;9.57;;;;;;;;;;6243999;22;20162;-91
2023/07/11 04:56:55;;;;;;;15.27;8.90;;;;;;;;;;6242255;22;20217;-91
2023/07/11 05:00:00;;;;;;;24.00;9.95;;;;;;;;;;6241963;23;20162;-91
2023/07/11 05:03:07;;;;;;;14.00;9.18;;;;;;;;;;6242740;23;20166;-93
2023/07/11 05:10:04;;;;;;;15.55;9.23;;;;;;;;;;6248453;22;20151;-95
2023/07/11 05:13:11;;;;;;;27.25;9.63;;;;;;;;;;6246036;22;20166;-92
2023/07/11 05:16:18;;;;;;;17.70;9.60;;;;;;;;;;6245075;23;20290;-93
2023/07/11 05:22:45;;;;;;;18.10;9.70;;;;;;;;;;6245185;22;20267;-91
2023/07/11 05:25:50;;;;;;;14.70;8.98;;;;;;;;;;6244667;22;20213;-93
2023/07/11 05:28:55;;;;;;;16.20;9.52;;;;;;;;;;6245702;23;20163;-92
2023/07/11 05:32:20;;;;;;;16.90;10.15;;;;;;;;;;6245735;22;20163;-94
2023/07/11 05:35:27;;;;;;;17.27;9.80;;;;;;;;;;6245773;22;20186;-94
2023/07/11 10:54:07;;;;;;;7.45;5.47;;;;;;;;;;6249547;22;20214;-91
2023/07/11 10:57:16;;;;;;;10.80;5.70;;;;;;;;;;6251591;23;20200;-94
2023/07/11 11:00:24;;;;;;;12.60;5.50;;;;;;;;;;6250197;22;20173;-92
2023/07/11 11:03:40;;;;;;;12.85;5.65;;;;;;;;;;6250024;22;20166;-92
2023/07/11 11:06:54;;;;;;;10.82;5.65;;;;;;;;;;6250406;22;20182;-91
2023/07/11 11:10:06;;;;;;;17.13;6.07;;;;;;;;;;6250618;22;20185;-93
2023/07/11 11:13:21;;;;;;;9.30;5.95;;;;;;;;;;6231279;23;20166;-91
2023/07/11 11:16:30;;;;;;;12.27;5.57;;;;;;;;;;6246838;22;20170;-93
2023/07/11 11:19:56;;;;;;;8.95;5.78;;;;;;;;;;6248868;22;20165;-93
2023/07/11 11:27:38;;;;;;;9.93;5.82;;;;;;;;;;6264704;22;20197;-93
2023/07/11 11:35:17;;;;;;;12.35;5.55;;;;;;;;;;6265679;22;20134;-92
2023/07/11 11:38:38;;;;;;;7.72;5.15;;;;;;;;;;6229115;23;20533;-93
2023/07/11 11:41:44;;;;;;;9.48;5.35;;;;;;;;;;6246361;23;20165;-92
2023/07/11 11:44:54;;;;;;;7.80;5.30;;;;;;;;;;6244780;23;20281;-91
2023/07/11 11:48:02;;;;;;;10.90;5.90;;;;;;;;;;6244804;22;20153;-92
2023/07/11 11:51:09;;;;;;;8.25;5.00;;;;;;;;;;6247169;23;20489;-91
2023/07/11 11:54:18;;;;;;;8.65;5.80;;;;;;;;;;6246434;23;20258;-92
